Terminal Aerodrome Forecast
Issued by NWS Blacksburg, VA

Home | Current Version | Previous Version | Text Only | Print | Product List | Glossary On
Versions: 1 2 3 4 5 6 7 8 9 10 11 12 13
000
FTUS41 KRNK 232339
TAFROA
TAF
KROA 232339Z 2400/2424 09010KT P6SM -RA SCT025 OVC040
     FM240200 08008KT 5SM -RA BR BKN025
      TEMPO 2406/2410 3SM -RA OVC008
     FM241200 07010KT 5SM -RA BR OVC005=

USA.gov is the U.S. government's official web portal to all federal, state and local government web resources and services.